createdAt,value
2019-04-03T00:01:46.389Z,88.93
2019-04-03T00:04:15.284Z,88.68
2019-04-03T00:06:44.071Z,88.84
2019-04-03T00:09:12.817Z,88.96
2019-04-03T00:11:41.614Z,89.15
2019-04-03T00:14:12.212Z,88.85
2019-04-03T00:16:40.897Z,88.49
2019-04-03T00:19:09.741Z,88.74
2019-04-03T00:21:38.493Z,89.07
2019-04-03T00:24:07.277Z,89.07
2019-04-03T00:26:36.103Z,89.11
2019-04-03T00:29:04.944Z,89.16
2019-04-03T00:31:33.824Z,89.13
2019-04-03T00:34:02.545Z,89.01
2019-04-03T00:36:31.319Z,88.92
2019-04-03T00:39:00.104Z,89.04
2019-04-03T00:41:28.865Z,88.81
2019-04-03T00:43:57.614Z,89.23
2019-04-03T00:46:26.358Z,89.82
2019-04-03T00:48:55.868Z,90.34
2019-04-03T00:51:27.343Z,90.71
2019-04-03T00:53:57.977Z,90.68
2019-04-03T00:56:26.845Z,90.77
2019-04-03T00:58:56.034Z,90.91
2019-04-03T01:01:26.524Z,91.36
2019-04-03T01:03:55.274Z,90.82
2019-04-03T01:06:24.030Z,90.95
2019-04-03T01:08:52.768Z,91.18
2019-04-03T01:11:21.563Z,90.60
2019-04-03T01:13:50.328Z,90.53
2019-04-03T01:16:19.110Z,90.75
2019-04-03T01:18:47.858Z,88.58
2019-04-03T01:21:16.593Z,84.14
2019-04-03T01:23:45.461Z,83.55
2019-04-03T01:26:14.198Z,84.20
2019-04-03T01:28:42.935Z,85.03
2019-04-03T01:31:14.220Z,84.73
2019-04-03T01:33:42.678Z,83.80
2019-04-03T01:36:12.428Z,83.78
2019-04-03T01:38:41.177Z,84.64
2019-04-03T01:41:09.988Z,85.15
2019-04-03T01:43:39.739Z,85.40
2019-04-03T01:46:08.499Z,86.36
2019-04-03T01:48:37.290Z,87.26
2019-04-03T01:51:06.014Z,88.48
2019-04-03T01:53:34.761Z,88.96
2019-04-03T01:56:05.135Z,89.76
2019-04-03T01:58:35.985Z,89.95
2019-04-03T02:01:08.111Z,91.16
2019-04-03T02:03:37.164Z,91.32
2019-04-03T02:06:05.936Z,91.73
2019-04-03T02:08:34.701Z,91.69
2019-04-03T02:11:03.508Z,91.98
2019-04-03T02:13:32.246Z,91.98
2019-04-03T02:16:01.085Z,92.09
2019-04-03T02:18:29.848Z,92.32
2019-04-03T02:20:58.688Z,92.71
2019-04-03T02:23:28.833Z,93.11
2019-04-03T02:25:57.935Z,93.68
2019-04-03T02:28:26.676Z,93.66
2019-04-03T02:30:55.717Z,94.04
2019-04-03T02:33:28.312Z,93.65
2019-04-03T02:35:54.966Z,93.60
2019-04-03T02:38:23.933Z,93.77
2019-04-03T02:40:52.721Z,93.82
2019-04-03T02:43:21.516Z,93.44
2019-04-03T02:45:50.361Z,93.73
2019-04-03T02:48:19.348Z,94.02
2019-04-03T02:50:48.588Z,94.06
2019-04-03T02:53:18.059Z,94.15
2019-04-03T02:55:46.832Z,94.12
2019-04-03T02:58:15.614Z,94.00
2019-04-03T03:00:44.541Z,93.59
2019-04-03T03:03:16.115Z,93.19
2019-04-03T03:05:43.764Z,92.20
2019-04-03T03:08:12.702Z,92.54
2019-04-03T03:10:41.529Z,92.56
2019-04-03T03:13:11.890Z,92.07
2019-04-03T03:15:43.895Z,91.60
2019-04-03T03:18:12.696Z,91.60
2019-04-03T03:20:42.497Z,91.25
2019-04-03T03:23:11.971Z,90.89
2019-04-03T03:25:41.272Z,90.55
2019-04-03T03:28:13.187Z,90.50
2019-04-03T03:30:50.673Z,90.34
2019-04-03T03:33:26.516Z,90.34
2019-04-03T03:35:46.856Z,89.75
2019-04-03T03:38:14.273Z,89.96
2019-04-03T03:40:47.256Z,90.08
2019-04-03T03:43:14.396Z,90.11
2019-04-03T03:45:44.769Z,90.45
2019-04-03T03:48:13.597Z,90.76
2019-04-03T03:50:43.889Z,90.64
2019-04-03T03:53:13.364Z,90.37
2019-04-03T03:55:43.709Z,90.47
2019-04-03T03:58:13.469Z,90.79
2019-04-03T04:00:42.948Z,91.20
2019-04-03T04:03:12.055Z,91.49
2019-04-03T04:05:41.829Z,91.39
2019-04-03T04:08:11.612Z,91.30
2019-04-03T04:10:41.123Z,91.27
2019-04-03T04:13:13.348Z,91.71
2019-04-03T04:15:40.519Z,91.96
2019-04-03T04:18:13.803Z,92.21
2019-04-03T04:20:40.839Z,91.83
2019-04-03T04:23:09.624Z,91.89
2019-04-03T04:25:38.436Z,92.00
2019-04-03T04:28:09.169Z,91.99
2019-04-03T04:30:38.616Z,92.19
2019-04-03T04:33:07.396Z,92.19
2019-04-03T04:35:36.410Z,92.08
2019-04-03T04:38:05.467Z,91.88
2019-04-03T04:40:34.317Z,91.91
2019-04-03T04:43:04.165Z,91.75
2019-04-03T04:45:33.925Z,91.58
2019-04-03T04:48:02.689Z,91.66
2019-04-03T04:50:32.374Z,91.61
2019-04-03T04:53:01.251Z,91.64
2019-04-03T04:55:31.311Z,91.81
2019-04-03T04:58:00.490Z,91.66
2019-04-03T05:00:30.027Z,92.06
2019-04-03T05:03:01.773Z,92.37
2019-04-03T05:05:31.152Z,91.75
2019-04-03T05:08:02.202Z,91.61
2019-04-03T05:10:31.487Z,91.65
2019-04-03T05:13:00.424Z,92.25
2019-04-03T05:15:29.391Z,92.17
2019-04-03T05:17:58.382Z,92.28
2019-04-03T05:20:27.303Z,92.54
2019-04-03T05:22:56.221Z,92.41
2019-04-03T05:25:25.032Z,92.47
2019-04-03T05:27:53.778Z,92.34
2019-04-03T05:30:36.529Z,92.57
2019-04-03T05:33:05.220Z,92.30
2019-04-03T05:35:34.011Z,91.95
2019-04-03T05:38:02.791Z,91.80
2019-04-03T05:40:31.664Z,91.84
2019-04-03T05:43:00.652Z,92.00
2019-04-03T05:45:29.457Z,91.90
2019-04-03T05:47:58.234Z,91.30
2019-04-03T05:50:27.226Z,90.97
2019-04-03T05:52:56.012Z,90.76
2019-04-03T05:55:24.888Z,90.55
2019-04-03T05:57:53.638Z,90.39
2019-04-03T06:00:22.667Z,90.49
2019-04-03T06:02:53.134Z,90.27
2019-04-03T06:05:21.879Z,90.16
2019-04-03T06:07:50.642Z,90.39
2019-04-03T06:10:19.397Z,90.10
2019-04-03T06:12:48.138Z,90.06
2019-04-03T06:15:17.316Z,90.29
2019-04-03T06:17:46.140Z,89.77
2019-04-03T06:20:15.171Z,89.42
2019-04-03T06:22:43.919Z,89.43
2019-04-03T06:25:13.937Z,89.41
2019-04-03T06:27:45.832Z,88.92
2019-04-03T06:30:15.535Z,88.39
2019-04-03T06:32:44.457Z,86.46
2019-04-03T06:35:13.642Z,87.08
2019-04-03T06:37:43.095Z,86.64
2019-04-03T06:40:12.139Z,86.24
2019-04-03T06:42:42.422Z,86.08
2019-04-03T06:45:11.598Z,87.18
2019-04-03T06:47:40.576Z,86.01
2019-04-03T06:50:11.842Z,85.74
2019-04-03T06:52:39.867Z,85.59
2019-04-03T06:55:09.540Z,86.07
2019-04-03T06:57:39.502Z,87.34
2019-04-03T07:00:08.669Z,88.70
2019-04-03T07:02:37.435Z,86.94
2019-04-03T07:05:09.575Z,86.93
2019-04-03T07:07:38.323Z,86.83
2019-04-03T07:10:09.469Z,86.55
2019-04-03T07:12:38.123Z,85.92
2019-04-03T07:15:08.451Z,85.85
2019-04-03T07:17:37.204Z,86.73
2019-04-03T07:20:14.470Z,86.99
2019-04-03T07:22:38.149Z,86.50
2019-04-03T07:25:08.641Z,85.99
2019-04-03T07:27:38.312Z,86.03
2019-04-03T07:30:09.997Z,85.98
2019-04-03T07:32:39.688Z,87.37
2019-04-03T07:35:09.753Z,84.70
2019-04-03T07:37:38.899Z,85.66
2019-04-03T07:40:08.526Z,84.83
2019-04-03T07:42:37.294Z,84.59
2019-04-03T07:45:07.803Z,83.42
2019-04-03T07:47:36.673Z,83.45
2019-04-03T07:50:10.293Z,85.09
2019-04-03T07:52:38.481Z,83.53
2019-04-03T07:55:07.853Z,85.37
2019-04-03T07:57:37.237Z,84.23
2019-04-03T08:00:08.960Z,83.33
2019-04-03T08:02:38.458Z,82.35
2019-04-03T08:05:08.817Z,81.75
2019-04-03T08:07:37.567Z,82.48
2019-04-03T08:10:07.826Z,82.07
2019-04-03T08:12:36.642Z,82.78
2019-04-03T08:15:08.096Z,81.83
2019-04-03T08:17:37.073Z,82.06
2019-04-03T08:20:08.202Z,81.42
2019-04-03T08:22:37.036Z,80.95
2019-04-03T08:25:10.627Z,75.47
2019-04-03T08:27:38.735Z,74.04
2019-04-03T08:30:10.061Z,72.64
2019-04-03T08:32:38.784Z,68.87
2019-04-03T08:35:19.969Z,64.02
2019-04-03T08:37:40.610Z,63.12
2019-04-03T08:40:09.290Z,64.24
2019-04-03T08:42:38.036Z,64.94
2019-04-03T08:45:09.667Z,63.96
2019-04-03T08:47:38.595Z,64.65
2019-04-03T08:50:11.652Z,65.75
2019-04-03T08:52:40.899Z,68.89
2019-04-03T08:55:12.906Z,64.47
2019-04-03T08:57:41.001Z,64.09
2019-04-03T09:00:12.347Z,64.83
2019-04-03T09:02:43.520Z,65.93
2019-04-03T09:05:13.763Z,65.78
2019-04-03T09:07:42.215Z,63.85
2019-04-03T09:10:13.487Z,65.69
2019-04-03T09:12:42.244Z,67.63
2019-04-03T09:15:12.556Z,66.08
2019-04-03T09:17:41.314Z,64.17
2019-04-03T09:20:12.888Z,65.27
2019-04-03T09:22:40.996Z,65.86
2019-04-03T09:25:10.021Z,64.35
2019-04-03T09:27:40.354Z,65.87
2019-04-03T09:30:11.786Z,65.14
2019-04-03T09:32:40.596Z,68.81
2019-04-03T09:35:10.442Z,65.44
2019-04-03T09:37:39.191Z,63.58
2019-04-03T09:40:08.612Z,66.63
2019-04-03T09:42:37.382Z,66.51
2019-04-03T09:45:08.719Z,64.09
2019-04-03T09:47:37.488Z,62.25
2019-04-03T09:50:08.673Z,62.62
2019-04-03T09:52:42.093Z,63.64
2019-04-03T09:55:08.337Z,66.38
2019-04-03T09:57:37.142Z,64.21
2019-04-03T10:00:10.635Z,63.18
2019-04-03T10:02:39.437Z,63.15
2019-04-03T10:05:09.229Z,63.16
2019-04-03T10:07:38.305Z,64.33
2019-04-03T10:10:09.097Z,64.30
2019-04-03T10:12:38.039Z,64.98
2019-04-03T10:15:08.411Z,64.40
2019-04-03T10:17:38.532Z,66.16
2019-04-03T10:20:10.267Z,64.83
2019-04-03T10:22:38.991Z,65.07
2019-04-03T10:25:09.313Z,63.62
2019-04-03T10:27:38.061Z,66.59
2019-04-03T10:30:12.218Z,64.61
2019-04-03T10:32:41.442Z,62.30
2019-04-03T10:35:10.968Z,65.29
2019-04-03T10:37:47.667Z,66.76
2019-04-03T10:40:17.752Z,67.37
2019-04-03T10:42:47.225Z,66.22
2019-04-03T10:45:17.414Z,67.27
2019-04-03T10:47:46.135Z,66.20
2019-04-03T10:50:15.415Z,65.93
2019-04-03T10:52:46.193Z,66.49
2019-04-03T10:55:15.825Z,66.61
2019-04-03T10:57:44.634Z,65.54
2019-04-03T11:00:15.669Z,66.05
2019-04-03T11:02:44.428Z,66.15
2019-04-03T11:05:13.983Z,65.57
2019-04-03T11:07:42.838Z,65.51
2019-04-03T11:10:12.168Z,66.14
2019-04-03T11:12:41.221Z,67.07
2019-04-03T11:15:12.649Z,66.27
2019-04-03T11:17:41.989Z,66.28
2019-04-03T11:20:14.054Z,66.06
2019-04-03T11:22:43.943Z,66.64
2019-04-03T11:25:15.307Z,66.35
2019-04-03T11:27:45.143Z,68.19
2019-04-03T11:30:19.946Z,66.28
2019-04-03T11:32:47.142Z,66.58
2019-04-03T11:35:17.244Z,66.36
2019-04-03T11:37:46.023Z,68.66
2019-04-03T11:40:18.065Z,70.54
2019-04-03T11:42:47.786Z,70.54
2019-04-03T11:45:17.094Z,68.13
2019-04-03T11:47:46.448Z,67.12
2019-04-03T11:50:18.046Z,67.83
2019-04-03T11:52:47.096Z,68.51
2019-04-03T11:55:16.027Z,66.85
2019-04-03T11:57:47.419Z,65.22
2019-04-03T12:00:24.208Z,66.09
2019-04-03T12:02:53.293Z,67.70
2019-04-03T12:05:23.040Z,66.11
2019-04-03T12:07:51.786Z,66.34
2019-04-03T12:10:20.560Z,66.22
2019-04-03T12:12:49.302Z,66.33
2019-04-03T12:15:20.205Z,65.85
2019-04-03T12:17:48.768Z,64.47
2019-04-03T12:20:17.764Z,66.20
2019-04-03T12:22:46.539Z,67.04
2019-04-03T12:25:15.705Z,62.91
2019-04-03T12:27:46.042Z,64.24
2019-04-03T12:30:16.155Z,65.07
2019-04-03T12:32:48.627Z,64.84
2019-04-03T12:35:15.489Z,65.29
2019-04-03T12:37:44.549Z,67.17
2019-04-03T12:40:14.145Z,68.23
2019-04-03T12:42:43.224Z,66.97
2019-04-03T12:45:12.298Z,66.39
2019-04-03T12:47:43.572Z,66.37
2019-04-03T12:50:13.442Z,66.46
2019-04-03T12:52:44.760Z,66.14
2019-04-03T12:55:13.031Z,66.36
2019-04-03T12:57:41.883Z,68.89
2019-04-03T13:00:13.477Z,67.75
2019-04-03T13:02:42.555Z,67.74
2019-04-03T13:05:11.378Z,69.29
2019-04-03T13:07:40.376Z,69.06
2019-04-03T13:10:10.561Z,68.77
2019-04-03T13:12:39.435Z,68.49
2019-04-03T13:15:12.585Z,68.37
2019-04-03T13:17:43.808Z,69.26
2019-04-03T13:20:12.615Z,67.42
2019-04-03T13:22:42.609Z,67.51
2019-04-03T13:25:12.870Z,68.51
2019-04-03T13:27:42.274Z,68.76
2019-04-03T13:30:13.915Z,67.10
2019-04-03T13:32:43.073Z,69.05
2019-04-03T13:35:14.598Z,67.24
2019-04-03T13:37:43.197Z,67.07
2019-04-03T13:40:12.364Z,67.06
2019-04-03T13:42:41.257Z,67.70
2019-04-03T13:45:11.804Z,68.40
2019-04-03T13:47:42.809Z,67.87
2019-04-03T13:50:11.844Z,68.79
2019-04-03T13:52:43.952Z,67.71
2019-04-03T13:55:12.153Z,67.09
2019-04-03T13:57:41.582Z,67.27
2019-04-03T14:00:20.567Z,67.16
2019-04-03T14:02:44.979Z,67.31
2019-04-03T14:05:14.493Z,67.02
2019-04-03T14:07:43.862Z,66.78
2019-04-03T14:10:12.814Z,64.41
2019-04-03T14:12:44.263Z,64.98
2019-04-03T14:15:12.148Z,64.34
2019-04-03T14:17:53.787Z,64.51
2019-04-03T14:20:13.020Z,63.52
2019-04-03T14:22:41.975Z,63.14
2019-04-03T14:25:19.369Z,65.64
2019-04-03T14:27:41.799Z,64.68
2019-04-03T14:30:12.611Z,63.78
2019-04-03T14:32:44.293Z,64.09
2019-04-03T14:35:41.251Z,64.77
2019-04-03T14:37:42.737Z,64.70
2019-04-03T14:40:12.956Z,66.64
2019-04-03T14:42:42.200Z,66.70
2019-04-03T14:45:14.574Z,67.16
2019-04-03T14:47:42.208Z,66.17
2019-04-03T14:50:12.529Z,66.02
2019-04-03T14:52:49.655Z,68.07
2019-04-03T14:55:22.307Z,65.85
2019-04-03T14:57:50.314Z,68.90
2019-04-03T15:00:27.266Z,68.79
2019-04-03T15:02:50.612Z,67.14
2019-04-03T15:05:19.738Z,69.12
2019-04-03T15:07:50.549Z,69.51
2019-04-03T15:10:20.874Z,66.89
2019-04-03T15:12:49.985Z,69.54
2019-04-03T15:15:19.176Z,67.81
2019-04-03T15:17:48.154Z,68.59
2019-04-03T15:20:18.843Z,67.29
2019-04-03T15:22:48.354Z,67.00
2019-04-03T15:25:20.288Z,68.21
2019-04-03T15:27:48.822Z,67.01
2019-04-03T15:30:18.278Z,69.02
2019-04-03T15:32:50.155Z,69.35
2019-04-03T15:35:18.795Z,68.91
2019-04-03T15:37:48.308Z,68.25
2019-04-03T15:40:18.535Z,68.54
2019-04-03T15:42:47.538Z,69.67
2019-04-03T15:45:16.892Z,70.76
2019-04-03T15:47:47.264Z,68.86
2019-04-03T15:50:17.985Z,69.32
2019-04-03T15:52:49.299Z,69.12
2019-04-03T15:55:17.727Z,69.55
2019-04-03T15:57:46.739Z,68.85
2019-04-03T16:00:21.335Z,68.64
2019-04-03T16:02:50.546Z,70.02
2019-04-03T16:05:22.217Z,69.15
2019-04-03T16:07:51.613Z,69.37
2019-04-03T16:10:23.237Z,69.37
2019-04-03T16:12:51.433Z,69.56
2019-04-03T16:15:22.458Z,70.18
2019-04-03T16:17:50.772Z,69.82
2019-04-03T16:20:19.553Z,70.23
2019-04-03T16:22:48.318Z,70.42
2019-04-03T16:25:17.881Z,71.02
2019-04-03T16:27:47.542Z,71.22
2019-04-03T16:30:18.724Z,71.68
2019-04-03T16:32:47.459Z,71.36
2019-04-03T16:35:16.277Z,71.58
2019-04-03T16:37:45.267Z,70.86
2019-04-03T16:40:15.895Z,70.31
2019-04-03T16:42:47.495Z,71.55
2019-04-03T16:45:15.662Z,71.45
2019-04-03T16:47:45.251Z,72.04
2019-04-03T16:50:15.551Z,72.13
2019-04-03T16:52:46.782Z,74.42
2019-04-03T16:55:16.749Z,73.16
2019-04-03T16:57:46.303Z,74.18
2019-04-03T17:00:17.126Z,73.60
2019-04-03T17:02:46.201Z,74.25
2019-04-03T17:05:26.035Z,74.39
2019-04-03T17:07:55.654Z,73.74
2019-04-03T17:10:27.066Z,73.81
2019-04-03T17:12:56.411Z,74.18
2019-04-03T17:15:25.238Z,73.87
2019-04-03T17:17:54.118Z,74.14
2019-04-03T17:20:23.595Z,75.07
2019-04-03T17:22:53.688Z,75.00
2019-04-03T17:25:23.398Z,74.69
2019-04-03T17:27:58.080Z,75.09
2019-04-03T17:30:26.261Z,74.67
2019-04-03T17:32:56.448Z,74.69
2019-04-03T17:35:26.640Z,74.92
2019-04-03T17:37:58.911Z,75.26
2019-04-03T17:40:26.938Z,74.94
2019-04-03T17:42:55.745Z,74.82
2019-04-03T17:45:25.130Z,75.37
2019-04-03T17:48:02.067Z,75.28
2019-04-03T17:50:31.145Z,75.35
2019-04-03T17:53:13.707Z,75.85
2019-04-03T17:55:48.544Z,75.50
2019-04-03T17:58:20.686Z,75.04
2019-04-03T18:00:52.056Z,75.97
2019-04-03T18:03:22.468Z,75.98
2019-04-03T18:05:51.384Z,75.52
2019-04-03T18:08:20.177Z,75.24
2019-04-03T18:10:49.056Z,75.72
2019-04-03T18:13:17.868Z,76.57
2019-04-03T18:15:46.618Z,76.31
2019-04-03T18:18:15.370Z,76.29
2019-04-03T18:20:44.670Z,75.98
2019-04-03T18:23:13.980Z,76.15
2019-04-03T18:25:43.776Z,76.51
2019-04-03T18:28:15.999Z,76.33
2019-04-03T18:30:45.005Z,76.06
2019-04-03T18:33:16.611Z,76.86
2019-04-03T18:35:44.428Z,76.74
2019-04-03T18:38:13.390Z,77.20
2019-04-03T18:40:46.412Z,76.95
2019-04-03T18:43:15.185Z,77.02
2019-04-03T18:45:43.970Z,77.60
2019-04-03T18:48:12.709Z,77.78
2019-04-03T18:50:41.578Z,77.32
2019-04-03T18:53:10.406Z,78.08
2019-04-03T18:55:39.136Z,75.73
2019-04-03T18:58:08.192Z,76.26
2019-04-03T19:00:36.985Z,75.57
2019-04-03T19:03:06.059Z,75.07
2019-04-03T19:05:35.676Z,75.41
2019-04-03T19:08:13.128Z,75.06
2019-04-03T19:10:34.945Z,75.19
2019-04-03T19:13:03.722Z,74.12
2019-04-03T19:15:33.678Z,75.27
2019-04-03T19:18:18.047Z,75.59
2019-04-03T19:20:48.338Z,76.07
2019-04-03T19:23:33.423Z,76.82
2019-04-03T19:26:03.328Z,77.51
2019-04-03T19:28:34.329Z,78.33
2019-04-03T19:31:16.558Z,78.69
2019-04-03T19:33:46.363Z,79.33
2019-04-03T19:36:15.204Z,79.67
2019-04-03T19:38:44.431Z,79.45
2019-04-03T19:41:13.222Z,79.55
2019-04-03T19:43:41.960Z,79.89
2019-04-03T19:46:10.730Z,79.48
2019-04-03T19:48:39.457Z,80.55
2019-04-03T19:51:08.224Z,80.20
2019-04-03T19:53:36.962Z,81.03
2019-04-03T19:56:05.737Z,80.71
2019-04-03T19:58:34.469Z,81.18
2019-04-03T20:01:05.563Z,82.88
2019-04-03T20:03:35.748Z,82.93
2019-04-03T20:06:05.350Z,82.07
2019-04-03T20:08:34.751Z,81.43
2019-04-03T20:11:06.484Z,81.17
2019-04-03T20:13:36.073Z,81.45
2019-04-03T20:16:06.366Z,81.66
2019-04-03T20:18:35.296Z,81.28
2019-04-03T20:21:04.411Z,82.42
2019-04-03T20:23:33.288Z,82.93
2019-04-03T20:26:04.615Z,82.61
2019-04-03T20:28:33.732Z,82.57
2019-04-03T20:31:03.779Z,82.44
2019-04-03T20:33:33.427Z,82.38
2019-04-03T20:36:03.111Z,83.20
2019-04-03T20:38:32.863Z,84.58
2019-04-03T20:41:03.312Z,84.70
2019-04-03T20:43:32.172Z,85.07
2019-04-03T20:46:00.906Z,85.08
2019-04-03T20:48:29.647Z,84.51
2019-04-03T20:50:58.404Z,84.33
2019-04-03T20:53:28.168Z,85.91
2019-04-03T20:55:58.126Z,86.45
2019-04-03T20:58:27.469Z,88.01
2019-04-03T21:01:06.190Z,87.36
2019-04-03T21:03:26.685Z,88.22
2019-04-03T21:05:55.943Z,88.69
2019-04-03T21:08:26.581Z,89.48
2019-04-03T21:10:55.261Z,89.80
2019-04-03T21:13:24.014Z,89.26
2019-04-03T21:15:52.936Z,89.23
2019-04-03T21:18:21.694Z,89.15
2019-04-03T21:20:50.419Z,89.47
2019-04-03T21:23:19.208Z,89.61
2019-04-03T21:25:47.962Z,89.70
2019-04-03T21:28:16.710Z,89.98
2019-04-03T21:30:45.465Z,90.01
2019-04-03T21:33:17.056Z,90.68
2019-04-03T21:35:44.786Z,90.25
2019-04-03T21:38:13.529Z,90.41
2019-04-03T21:40:42.269Z,90.55
2019-04-03T21:43:11.075Z,90.82
2019-04-03T21:45:39.934Z,90.77
2019-04-03T21:48:11.920Z,90.96
2019-04-03T21:50:41.180Z,91.76
2019-04-03T21:53:10.839Z,91.89
2019-04-03T21:55:39.653Z,92.03
2019-04-03T21:58:08.821Z,92.04
2019-04-03T22:01:00.399Z,92.18
2019-04-03T22:03:29.162Z,92.09
2019-04-03T22:05:57.905Z,92.09
2019-04-03T22:08:29.074Z,92.00
2019-04-03T22:10:57.457Z,91.77
2019-04-03T22:13:26.193Z,91.96
2019-04-03T22:15:54.950Z,91.68
2019-04-03T22:18:24.262Z,91.69
2019-04-03T22:20:53.452Z,91.46
2019-04-03T22:23:22.195Z,91.42
2019-04-03T22:25:50.932Z,91.30
2019-04-03T22:28:35.010Z,90.87
2019-04-03T22:31:05.200Z,90.92
2019-04-03T22:33:34.105Z,90.89
2019-04-03T22:36:03.350Z,90.81
2019-04-03T22:38:36.979Z,91.68
2019-04-03T22:41:03.777Z,92.01
2019-04-03T22:43:32.525Z,92.16
2019-04-03T22:46:02.494Z,91.77
2019-04-03T22:48:31.244Z,91.48
2019-04-03T22:51:00.012Z,91.45
2019-04-03T22:53:28.750Z,91.48
2019-04-03T22:55:57.525Z,91.63
2019-04-03T22:58:26.308Z,92.03
2019-04-03T23:00:55.095Z,91.76
2019-04-03T23:03:23.845Z,91.35
2019-04-03T23:05:52.728Z,91.37
2019-04-03T23:08:22.766Z,92.24
2019-04-03T23:10:52.074Z,91.50
2019-04-03T23:13:20.844Z,91.76
2019-04-03T23:15:49.570Z,91.71
2019-04-03T23:18:18.343Z,92.06
2019-04-03T23:20:47.286Z,91.93
2019-04-03T23:23:16.283Z,91.78
2019-04-03T23:25:45.101Z,92.50
2019-04-03T23:28:13.836Z,92.38
2019-04-03T23:30:42.613Z,92.26
2019-04-03T23:33:11.402Z,92.13
2019-04-03T23:35:40.140Z,92.06
2019-04-03T23:38:08.888Z,92.11
2019-04-03T23:40:37.677Z,92.02
2019-04-03T23:43:08.694Z,91.46
2019-04-03T23:45:37.044Z,91.63
2019-04-03T23:48:05.779Z,91.64
2019-04-03T23:50:34.505Z,91.57
2019-04-03T23:53:03.283Z,91.08
2019-04-03T23:55:32.452Z,90.75
2019-04-03T23:58:01.190Z,90.84
